< < Back
Terminal Aerodrome Forecast


Current Version              Previous Versions:   1  2  3  4  5  6  7  8  9  

Terminal Aerodrome Forecast

542
FTUS44 KMOB 242300
TAFMOB
TAF
KMOB 242320Z 2500/2524 18010KT P6SM FEW040 BKN200
     FM250900 20006KT 4SM BR OVC007
      TEMPO 2510/2513 1/2SM FG VV001
     FM251500 27007KT P6SM OVC015=

Latest METAR

244
SAUS80 KWBC 250100 CCA
MTRMOB
METAR KMOB 250056Z 18006KT 10SM SCT200 20/18 A2992 RMK AO2 SLP128
T02000178


USA.gov is the U.S. government's official web portal to all federal, state and local government web resources and services.